createdAt,value
2023-02-21T00:00:35.303Z,952.27
2023-02-21T00:01:35.275Z,952.37
2023-02-21T00:02:35.294Z,952.40
2023-02-21T00:03:35.268Z,952.44
2023-02-21T00:04:35.269Z,952.51
2023-02-21T00:05:35.290Z,952.56
2023-02-21T00:06:35.240Z,952.64
2023-02-21T00:07:35.232Z,952.59
2023-02-21T00:08:35.207Z,952.61
2023-02-21T00:09:35.201Z,952.71
2023-02-21T00:10:35.214Z,952.72
2023-02-21T00:11:35.192Z,952.74
2023-02-21T00:12:35.163Z,952.86
2023-02-21T00:13:35.176Z,952.91
2023-02-21T00:14:35.143Z,952.93
2023-02-21T00:15:35.164Z,952.95
2023-02-21T00:16:35.153Z,952.97
2023-02-21T00:17:35.109Z,953.03
2023-02-21T00:18:35.116Z,953.10
2023-02-21T00:19:36.724Z,953.11
2023-02-21T00:20:35.075Z,953.13
2023-02-21T00:21:35.053Z,953.18
2023-02-21T00:22:35.042Z,953.19
2023-02-21T00:23:35.044Z,953.27
2023-02-21T00:24:35.051Z,953.33
2023-02-21T00:25:35.015Z,953.36
2023-02-21T00:26:35.026Z,953.36
2023-02-21T00:27:34.988Z,953.41
2023-02-21T00:28:35.039Z,953.47
2023-02-21T00:29:34.997Z,953.40
2023-02-21T00:30:35.118Z,953.53
2023-02-21T00:31:34.982Z,953.61
2023-02-21T00:32:35.106Z,953.67
2023-02-21T00:33:34.954Z,953.64
2023-02-21T00:34:34.957Z,953.70
2023-02-21T00:35:34.901Z,953.76
2023-02-21T00:36:34.911Z,953.76
2023-02-21T00:37:34.891Z,953.91
2023-02-21T00:38:34.881Z,953.94
2023-02-21T00:39:34.850Z,953.97
2023-02-21T00:40:34.868Z,953.93
2023-02-21T00:41:34.907Z,953.97
2023-02-21T00:42:34.815Z,954.02
2023-02-21T00:43:36.727Z,954.05
2023-02-21T00:44:34.799Z,954.07
2023-02-21T00:45:34.792Z,954.12
2023-02-21T00:46:34.806Z,954.16
2023-02-21T00:47:34.805Z,954.23
2023-02-21T00:48:35.032Z,954.22
2023-02-21T00:49:34.758Z,954.30
2023-02-21T00:50:34.757Z,954.31
2023-02-21T00:51:34.753Z,954.32
2023-02-21T00:52:34.730Z,954.45
2023-02-21T00:53:34.711Z,954.40
2023-02-21T00:54:34.756Z,954.42
2023-02-21T00:55:35.678Z,954.50
2023-02-21T00:56:34.709Z,954.50
2023-02-21T00:57:34.695Z,954.54
2023-02-21T00:58:34.648Z,954.58
2023-02-21T00:59:34.645Z,954.54
2023-02-21T01:00:34.621Z,954.59
2023-02-21T01:01:34.722Z,954.62
2023-02-21T01:02:34.619Z,954.68
2023-02-21T01:03:35.240Z,954.73
2023-02-21T01:04:34.694Z,954.77
2023-02-21T01:05:34.579Z,954.85
2023-02-21T01:06:34.570Z,954.82
2023-02-21T01:07:34.587Z,954.91
2023-02-21T01:08:34.557Z,954.92
2023-02-21T01:09:34.535Z,955.01
2023-02-21T01:10:34.514Z,955.07
2023-02-21T01:11:34.516Z,955.10
2023-02-21T01:12:34.497Z,955.15
2023-02-21T01:13:34.511Z,955.22
2023-02-21T01:14:34.866Z,955.20
2023-02-21T01:15:34.522Z,955.28
2023-02-21T01:16:35.177Z,955.33
2023-02-21T01:17:34.458Z,955.40
2023-02-21T01:18:34.446Z,955.40
2023-02-21T01:19:35.262Z,955.41
2023-02-21T01:20:34.403Z,955.52
2023-02-21T01:21:34.411Z,955.51
2023-02-21T01:22:34.586Z,955.57
2023-02-21T01:23:34.399Z,955.69
2023-02-21T01:24:34.388Z,955.63
2023-02-21T01:25:34.360Z,955.73
2023-02-21T01:26:34.365Z,955.71
2023-02-21T01:27:34.344Z,955.86
2023-02-21T01:28:34.674Z,955.89
2023-02-21T01:29:34.323Z,955.89
2023-02-21T01:30:34.345Z,955.97
2023-02-21T01:31:34.314Z,955.98
2023-02-21T01:32:34.379Z,956.04
2023-02-21T01:33:34.292Z,956.08
2023-02-21T01:34:36.198Z,956.12
2023-02-21T01:35:34.264Z,956.21
2023-02-21T01:36:34.238Z,956.26
2023-02-21T01:37:34.448Z,956.29
2023-02-21T01:38:34.283Z,956.30
2023-02-21T01:39:34.256Z,956.35
2023-02-21T01:40:34.198Z,956.34
2023-02-21T01:41:34.480Z,956.37
2023-02-21T01:42:34.170Z,956.47
2023-02-21T01:43:34.209Z,956.49
2023-02-21T01:44:34.171Z,956.57
2023-02-21T01:45:34.134Z,956.56
2023-02-21T01:46:34.133Z,956.61
2023-02-21T01:47:34.119Z,956.69
2023-02-21T01:48:34.126Z,956.69
2023-02-21T01:49:34.134Z,956.74
2023-02-21T01:50:34.102Z,956.74
2023-02-21T01:51:34.081Z,956.80
2023-02-21T01:52:34.088Z,956.87
2023-02-21T01:53:34.042Z,956.97
2023-02-21T01:54:34.021Z,956.98
2023-02-21T01:55:34.041Z,957.10
2023-02-21T01:56:34.848Z,957.00
2023-02-21T01:57:33.998Z,957.05
2023-02-21T01:58:34.002Z,957.09
2023-02-21T01:59:33.995Z,957.17
2023-02-21T02:00:34.001Z,957.22
2023-02-21T02:01:33.976Z,957.22
2023-02-21T02:02:34.000Z,957.29
2023-02-21T02:03:33.951Z,957.31
2023-02-21T02:04:33.991Z,957.41
2023-02-21T02:05:33.974Z,957.51
2023-02-21T02:06:33.906Z,957.55
2023-02-21T02:07:33.935Z,957.55
2023-02-21T02:08:33.944Z,957.64
2023-02-21T02:09:33.887Z,957.64
2023-02-21T02:10:33.866Z,957.72
2023-02-21T02:11:33.866Z,957.78
2023-02-21T02:12:33.832Z,957.81
2023-02-21T02:13:33.845Z,957.80
2023-02-21T02:14:33.807Z,957.84
2023-02-21T02:15:33.839Z,957.89
2023-02-21T02:16:33.970Z,957.87
2023-02-21T02:17:33.778Z,957.94
2023-02-21T02:18:33.876Z,957.94
2023-02-21T02:19:33.839Z,958.01
2023-02-21T02:20:33.748Z,957.99
2023-02-21T02:21:33.736Z,958.03
2023-02-21T02:22:33.752Z,958.05
2023-02-21T02:23:33.718Z,958.05
2023-02-21T02:24:33.768Z,958.10
2023-02-21T02:25:34.317Z,958.15
2023-02-21T02:26:33.722Z,958.21
2023-02-21T02:27:33.932Z,958.25
2023-02-21T02:28:33.666Z,958.39
2023-02-21T02:29:33.647Z,958.38
2023-02-21T02:30:34.259Z,958.44
2023-02-21T02:31:33.807Z,958.54
2023-02-21T02:32:33.718Z,958.54
2023-02-21T02:33:33.619Z,958.62
2023-02-21T02:34:33.625Z,958.71
2023-02-21T02:35:33.601Z,958.77
2023-02-21T02:36:33.573Z,958.76
2023-02-21T02:37:33.579Z,958.80
2023-02-21T02:38:33.613Z,958.84
2023-02-21T02:39:33.548Z,958.89
2023-02-21T02:40:33.522Z,958.90
2023-02-21T02:41:33.531Z,958.97
2023-02-21T02:42:33.535Z,958.97
2023-02-21T02:43:33.539Z,959.01
2023-02-21T02:44:33.507Z,959.05
2023-02-21T02:45:33.502Z,959.12
2023-02-21T02:46:33.521Z,959.12
2023-02-21T02:47:33.465Z,959.21
2023-02-21T02:48:33.462Z,959.23
2023-02-21T02:49:33.428Z,959.29
2023-02-21T02:50:34.182Z,959.35
2023-02-21T02:51:33.408Z,959.36
2023-02-21T02:52:33.391Z,959.39
2023-02-21T02:53:33.411Z,959.49
2023-02-21T02:54:33.415Z,959.45
2023-02-21T02:55:33.367Z,959.50
2023-02-21T02:56:33.357Z,959.55
2023-02-21T02:57:33.353Z,959.58
2023-02-21T02:58:33.350Z,959.69
2023-02-21T02:59:33.335Z,959.78
2023-02-21T03:00:33.310Z,959.81
2023-02-21T03:01:33.325Z,959.84
2023-02-21T03:02:33.302Z,959.84
2023-02-21T03:03:33.291Z,959.90
2023-02-21T03:04:33.294Z,960.00
2023-02-21T03:05:33.255Z,960.10
2023-02-21T03:06:33.238Z,960.11
2023-02-21T03:07:35.077Z,960.15
2023-02-21T03:08:33.217Z,960.24
2023-02-21T03:09:33.296Z,960.29
2023-02-21T03:10:33.214Z,960.30
2023-02-21T03:11:33.193Z,960.34
2023-02-21T03:12:33.179Z,960.43
2023-02-21T03:13:33.156Z,960.46
2023-02-21T03:14:33.141Z,960.51
2023-02-21T03:15:33.164Z,960.47
2023-02-21T03:16:33.156Z,960.61
2023-02-21T03:17:33.137Z,960.66
2023-02-21T03:18:33.119Z,960.67
2023-02-21T03:19:33.113Z,960.71
2023-02-21T03:20:33.107Z,960.73
2023-02-21T03:21:33.092Z,960.85
2023-02-21T03:22:33.078Z,960.82
2023-02-21T03:23:33.076Z,960.84
2023-02-21T03:24:33.054Z,960.88
2023-02-21T03:25:33.045Z,960.89
2023-02-21T03:26:33.041Z,960.87
2023-02-21T03:27:33.026Z,960.98
2023-02-21T03:28:33.049Z,960.99
2023-02-21T03:29:32.996Z,961.01
2023-02-21T03:30:33.011Z,961.12
2023-02-21T03:31:33.126Z,961.12
2023-02-21T03:32:32.971Z,961.14
2023-02-21T03:33:32.991Z,961.19
2023-02-21T03:34:32.944Z,961.21
2023-02-21T03:35:32.917Z,961.31
2023-02-21T03:36:32.942Z,961.29
2023-02-21T03:37:32.921Z,961.33
2023-02-21T03:38:32.920Z,961.41
2023-02-21T03:39:32.892Z,961.39
2023-02-21T03:40:32.888Z,961.45
2023-02-21T03:41:32.864Z,961.49
2023-02-21T03:42:32.861Z,961.52
2023-02-21T03:43:32.870Z,961.52
2023-02-21T03:44:32.835Z,961.57
2023-02-21T03:45:32.836Z,961.65
2023-02-21T03:46:32.853Z,961.67
2023-02-21T03:47:32.797Z,961.67
2023-02-21T03:48:33.026Z,961.71
2023-02-21T03:49:32.823Z,961.74
2023-02-21T03:50:32.778Z,961.76
2023-02-21T03:51:32.763Z,961.77
2023-02-21T03:52:32.764Z,961.80
2023-02-21T03:53:32.721Z,961.88
2023-02-21T03:54:32.790Z,961.88
2023-02-21T03:55:32.745Z,961.88
2023-02-21T03:56:41.520Z,961.89
2023-02-21T03:57:32.714Z,961.93
2023-02-21T03:58:32.718Z,961.96
2023-02-21T03:59:32.744Z,961.93
2023-02-21T04:00:32.683Z,961.98
2023-02-21T04:01:32.672Z,961.97
2023-02-21T04:02:32.650Z,961.98
2023-02-21T04:03:32.667Z,962.02
2023-02-21T04:04:32.635Z,962.07
2023-02-21T04:05:32.623Z,962.03
2023-02-21T04:06:32.600Z,962.08
2023-02-21T04:07:32.603Z,962.17
2023-02-21T04:08:32.608Z,962.18
2023-02-21T04:09:32.583Z,962.15
2023-02-21T04:10:35.910Z,962.21
2023-02-21T04:11:32.569Z,962.26
2023-02-21T04:12:32.531Z,962.30
2023-02-21T04:13:32.533Z,962.34
2023-02-21T04:14:32.555Z,962.40
2023-02-21T04:15:32.505Z,962.43
2023-02-21T04:16:32.563Z,962.42
2023-02-21T04:17:32.537Z,962.50
2023-02-21T04:18:32.498Z,962.50
2023-02-21T04:19:32.496Z,962.53
2023-02-21T04:20:32.454Z,962.53
2023-02-21T04:21:32.457Z,962.55
2023-02-21T04:22:32.521Z,962.68
2023-02-21T04:23:32.418Z,962.72
2023-02-21T04:24:32.431Z,962.72
2023-02-21T04:25:32.436Z,962.78
2023-02-21T04:26:32.394Z,962.77
2023-02-21T04:27:32.380Z,962.81
2023-02-21T04:28:32.423Z,962.85
2023-02-21T04:29:32.373Z,962.92
2023-02-21T04:30:32.385Z,962.97
2023-02-21T04:31:32.388Z,962.99
2023-02-21T04:32:32.336Z,963.09
2023-02-21T04:33:32.322Z,963.14
2023-02-21T04:34:32.326Z,963.20
2023-02-21T04:35:32.316Z,963.25
2023-02-21T04:36:32.316Z,963.33
2023-02-21T04:37:32.301Z,963.45
2023-02-21T04:38:32.264Z,963.43
2023-02-21T04:39:32.258Z,963.50
2023-02-21T04:40:32.240Z,963.56
2023-02-21T04:41:32.210Z,963.60
2023-02-21T04:42:32.230Z,963.63
2023-02-21T04:43:32.196Z,963.68
2023-02-21T04:44:32.221Z,963.72
2023-02-21T04:45:32.348Z,963.73
2023-02-21T04:46:32.168Z,963.81
2023-02-21T04:47:32.190Z,963.79
2023-02-21T04:48:32.164Z,963.78
2023-02-21T04:49:32.129Z,963.83
2023-02-21T04:50:32.122Z,963.86
2023-02-21T04:51:32.131Z,963.87
2023-02-21T04:52:32.144Z,963.89
2023-02-21T04:53:32.098Z,963.95
2023-02-21T04:54:32.087Z,963.95
2023-02-21T04:55:32.071Z,963.94
2023-02-21T04:56:32.068Z,963.96
2023-02-21T04:57:32.053Z,963.95
2023-02-21T04:58:44.150Z,964.02
2023-02-21T04:59:32.043Z,963.97
2023-02-21T05:00:32.026Z,963.98
2023-02-21T05:01:32.235Z,963.97
2023-02-21T05:02:31.986Z,963.99
2023-02-21T05:03:32.021Z,964.00
2023-02-21T05:04:32.063Z,964.01
2023-02-21T05:05:31.950Z,964.02
2023-02-21T05:06:31.955Z,964.08
2023-02-21T05:07:31.937Z,964.04
2023-02-21T05:08:31.971Z,964.07
2023-02-21T05:09:31.922Z,964.12
2023-02-21T05:10:44.886Z,964.12
2023-02-21T05:11:31.902Z,964.12
2023-02-21T05:12:31.875Z,964.19
2023-02-21T05:13:31.875Z,964.19
2023-02-21T05:14:31.885Z,964.24
2023-02-21T05:15:31.848Z,964.35
2023-02-21T05:16:31.848Z,964.30
2023-02-21T05:17:31.837Z,964.32
2023-02-21T05:18:31.817Z,964.43
2023-02-21T05:19:31.831Z,964.45
2023-02-21T05:20:31.791Z,964.49
2023-02-21T05:21:31.787Z,964.60
2023-02-21T05:22:31.816Z,964.57
2023-02-21T05:23:31.786Z,964.61
2023-02-21T05:24:31.734Z,964.66
2023-02-21T05:25:31.756Z,964.67
2023-02-21T05:26:31.726Z,964.69
2023-02-21T05:27:31.758Z,964.77
2023-02-21T05:28:31.720Z,964.82
2023-02-21T05:29:31.696Z,964.83
2023-02-21T05:30:31.863Z,964.84
2023-02-21T05:31:31.715Z,964.87
2023-02-21T05:32:31.670Z,964.92
2023-02-21T05:33:31.682Z,964.96
2023-02-21T05:34:31.658Z,965.00
2023-02-21T05:35:31.642Z,965.02
2023-02-21T05:36:31.632Z,965.03
2023-02-21T05:37:31.620Z,965.03
2023-02-21T05:38:31.637Z,965.12
2023-02-21T05:39:31.682Z,965.11
2023-02-21T05:40:31.573Z,965.13
2023-02-21T05:41:31.584Z,965.22
2023-02-21T05:42:31.556Z,965.19
2023-02-21T05:43:31.553Z,965.22
2023-02-21T05:44:31.535Z,965.27
2023-02-21T05:45:31.572Z,965.34
2023-02-21T05:46:32.292Z,965.35
2023-02-21T05:47:31.509Z,965.39
2023-02-21T05:48:31.486Z,965.40
2023-02-21T05:49:31.498Z,965.48
2023-02-21T05:50:31.484Z,965.48
2023-02-21T05:51:31.473Z,965.54
2023-02-21T05:52:31.443Z,965.57
2023-02-21T05:53:31.458Z,965.62
2023-02-21T05:54:31.516Z,965.57
2023-02-21T05:55:39.244Z,965.60
2023-02-21T05:56:31.402Z,965.61
2023-02-21T05:57:31.394Z,965.62
2023-02-21T05:58:32.135Z,965.69
2023-02-21T05:59:31.385Z,965.67
2023-02-21T06:00:31.373Z,965.70
2023-02-21T06:01:31.352Z,965.71
2023-02-21T06:02:31.395Z,965.70
2023-02-21T06:03:31.344Z,965.73
2023-02-21T06:04:31.342Z,965.73
2023-02-21T06:05:31.302Z,965.75
2023-02-21T06:06:31.307Z,965.77
2023-02-21T06:07:31.297Z,965.82
2023-02-21T06:08:31.274Z,965.82
2023-02-21T06:09:31.282Z,965.84
2023-02-21T06:10:31.311Z,965.84
2023-02-21T06:11:31.309Z,965.88
2023-02-21T06:12:31.246Z,965.93
2023-02-21T06:13:32.907Z,965.90
2023-02-21T06:14:31.216Z,965.94
2023-02-21T06:15:31.201Z,965.97
2023-02-21T06:16:31.191Z,965.97
2023-02-21T06:17:31.181Z,965.96
2023-02-21T06:18:31.197Z,965.96
2023-02-21T06:19:33.306Z,966.04
2023-02-21T06:20:31.432Z,966.00
2023-02-21T06:21:31.174Z,966.07
2023-02-21T06:22:31.125Z,966.02
2023-02-21T06:23:31.135Z,966.02
2023-02-21T06:24:31.141Z,966.08
2023-02-21T06:25:31.116Z,966.03
2023-02-21T06:26:31.090Z,966.09
2023-02-21T06:27:31.078Z,966.06
2023-02-21T06:28:31.075Z,966.12
2023-02-21T06:29:31.048Z,966.10
2023-02-21T06:30:31.145Z,966.17
2023-02-21T06:31:31.060Z,966.10
2023-02-21T06:32:31.007Z,966.15
2023-02-21T06:33:30.995Z,966.16
2023-02-21T06:34:31.054Z,966.17
2023-02-21T06:35:30.973Z,966.20
2023-02-21T06:36:30.975Z,966.18
2023-02-21T06:37:30.961Z,966.28
2023-02-21T06:38:30.944Z,966.23
2023-02-21T06:39:31.198Z,966.27
2023-02-21T06:40:30.950Z,966.25
2023-02-21T06:41:30.914Z,966.30
2023-02-21T06:42:31.193Z,966.29
2023-02-21T06:43:30.878Z,966.23
2023-02-21T06:44:30.921Z,966.27
2023-02-21T06:45:31.203Z,966.30
2023-02-21T06:46:30.896Z,966.28
2023-02-21T06:47:30.861Z,966.30
2023-02-21T06:48:30.903Z,966.28
2023-02-21T06:49:30.835Z,966.30
2023-02-21T06:50:30.839Z,966.30
2023-02-21T06:51:30.825Z,966.35
2023-02-21T06:52:30.817Z,966.41
2023-02-21T06:53:30.796Z,966.43
2023-02-21T06:54:30.771Z,966.46
2023-02-21T06:55:30.770Z,966.43
2023-02-21T06:56:30.792Z,966.44
2023-02-21T06:57:30.746Z,966.48
2023-02-21T06:58:30.732Z,966.48
2023-02-21T06:59:30.719Z,966.53
2023-02-21T07:00:30.786Z,966.53
2023-02-21T07:01:30.758Z,966.58
2023-02-21T07:02:30.711Z,966.57
2023-02-21T07:03:30.682Z,966.60
2023-02-21T07:04:30.717Z,966.61
2023-02-21T07:05:30.669Z,966.60
2023-02-21T07:06:30.653Z,966.66
2023-02-21T07:07:30.700Z,966.65
2023-02-21T07:08:30.634Z,966.65
2023-02-21T07:09:30.677Z,966.70
2023-02-21T07:10:30.616Z,966.76
2023-02-21T07:11:30.608Z,966.80
2023-02-21T07:12:30.568Z,966.75
2023-02-21T07:13:30.565Z,966.75
2023-02-21T07:14:30.585Z,966.80
2023-02-21T07:15:30.553Z,966.82
2023-02-21T07:16:30.551Z,966.81
2023-02-21T07:17:30.526Z,966.83
2023-02-21T07:18:30.524Z,966.89
2023-02-21T07:19:30.496Z,966.86
2023-02-21T07:20:30.564Z,966.81
2023-02-21T07:21:30.485Z,966.86
2023-02-21T07:22:30.485Z,966.84
2023-02-21T07:23:30.451Z,966.89
2023-02-21T07:24:30.462Z,966.87
2023-02-21T07:25:30.474Z,966.93
2023-02-21T07:26:30.464Z,966.99
2023-02-21T07:27:30.456Z,967.00
2023-02-21T07:28:30.410Z,967.08
2023-02-21T07:29:30.447Z,967.04
2023-02-21T07:30:30.405Z,967.04
2023-02-21T07:31:30.463Z,967.12
2023-02-21T07:32:30.380Z,967.15
2023-02-21T07:33:30.340Z,967.19
2023-02-21T07:34:30.352Z,967.21
2023-02-21T07:35:30.337Z,967.28
2023-02-21T07:36:30.409Z,967.32
2023-02-21T07:37:30.299Z,967.35
2023-02-21T07:38:30.289Z,967.37
2023-02-21T07:39:30.286Z,967.38
2023-02-21T07:40:30.271Z,967.39
2023-02-21T07:41:30.303Z,967.44
2023-02-21T07:42:30.280Z,967.53
2023-02-21T07:43:31.029Z,967.54
2023-02-21T07:44:30.268Z,967.60
2023-02-21T07:45:30.239Z,967.67
2023-02-21T07:46:30.241Z,967.67
2023-02-21T07:47:30.258Z,967.70
2023-02-21T07:48:30.226Z,967.72
2023-02-21T07:49:30.199Z,967.77
2023-02-21T07:50:30.182Z,967.75
2023-02-21T07:51:30.156Z,967.80
2023-02-21T07:52:30.148Z,967.86
2023-02-21T07:53:30.390Z,967.88
2023-02-21T07:54:31.058Z,967.92
2023-02-21T07:55:30.421Z,967.91
2023-02-21T07:56:30.568Z,968.02
2023-02-21T07:57:30.090Z,968.05
2023-02-21T07:58:30.879Z,968.06
2023-02-21T07:59:30.092Z,968.08
2023-02-21T08:00:30.069Z,968.13
2023-02-21T08:01:30.083Z,968.10
2023-02-21T08:02:30.062Z,968.14
2023-02-21T08:03:30.032Z,968.18
2023-02-21T08:04:30.859Z,968.20
2023-02-21T08:05:30.007Z,968.22
2023-02-21T08:06:29.992Z,968.25
2023-02-21T08:07:30.029Z,968.27
2023-02-21T08:08:29.968Z,968.33
2023-02-21T08:09:29.982Z,968.33
2023-02-21T08:10:29.991Z,968.38
2023-02-21T08:11:29.952Z,968.38
2023-02-21T08:12:29.924Z,968.36
2023-02-21T08:13:29.916Z,968.37
2023-02-21T08:14:30.023Z,968.36
2023-02-21T08:15:29.875Z,968.34
2023-02-21T08:16:29.980Z,968.33
2023-02-21T08:17:29.863Z,968.36
2023-02-21T08:18:29.873Z,968.35
2023-02-21T08:19:29.862Z,968.40
2023-02-21T08:20:29.828Z,968.38
2023-02-21T08:21:29.880Z,968.39
2023-02-21T08:22:29.816Z,968.42
2023-02-21T08:23:29.825Z,968.41
2023-02-21T08:24:30.073Z,968.39
2023-02-21T08:25:29.791Z,968.47
2023-02-21T08:26:29.824Z,968.46
2023-02-21T08:27:29.754Z,968.42
2023-02-21T08:28:29.754Z,968.50
2023-02-21T08:29:29.754Z,968.50
2023-02-21T08:30:29.756Z,968.51
2023-02-21T08:31:29.802Z,968.57
2023-02-21T08:32:29.878Z,968.55
2023-02-21T08:33:31.551Z,968.58
2023-02-21T08:34:29.689Z,968.65
2023-02-21T08:35:29.669Z,968.67
2023-02-21T08:36:29.736Z,968.76
2023-02-21T08:37:29.665Z,968.72
2023-02-21T08:38:29.650Z,968.71
2023-02-21T08:39:29.686Z,968.70
2023-02-21T08:40:29.608Z,968.77
2023-02-21T08:41:29.659Z,968.74
2023-02-21T08:42:29.632Z,968.73
2023-02-21T08:43:29.623Z,968.74
2023-02-21T08:44:29.586Z,968.75
2023-02-21T08:45:29.608Z,968.73
2023-02-21T08:46:29.682Z,968.71
2023-02-21T08:47:29.558Z,968.71
2023-02-21T08:48:29.514Z,968.77
2023-02-21T08:49:29.518Z,968.80
2023-02-21T08:50:29.562Z,968.83
2023-02-21T08:51:29.512Z,968.79
2023-02-21T08:52:29.531Z,968.79
2023-02-21T08:53:29.522Z,968.86
2023-02-21T08:54:29.751Z,968.80
2023-02-21T08:55:30.420Z,968.83
2023-02-21T08:56:29.458Z,968.82
2023-02-21T08:57:30.073Z,968.85
2023-02-21T08:58:29.429Z,968.83
2023-02-21T08:59:29.466Z,968.84
2023-02-21T09:00:29.410Z,968.79
2023-02-21T09:01:29.555Z,968.81
2023-02-21T09:02:29.391Z,968.83
2023-02-21T09:03:29.360Z,968.75
2023-02-21T09:04:29.364Z,968.76
2023-02-21T09:05:29.352Z,968.75
2023-02-21T09:06:29.355Z,968.81
2023-02-21T09:07:29.321Z,968.82
2023-02-21T09:08:29.334Z,968.89
2023-02-21T09:09:29.323Z,968.86
2023-02-21T09:10:30.077Z,968.91
2023-02-21T09:11:29.604Z,968.89
2023-02-21T09:12:29.315Z,968.90
2023-02-21T09:13:29.298Z,968.89
2023-02-21T09:14:29.240Z,968.92
2023-02-21T09:15:29.239Z,968.94
2023-02-21T09:16:29.364Z,968.89
2023-02-21T09:17:29.222Z,968.93
2023-02-21T09:18:29.591Z,968.90
2023-02-21T09:19:29.244Z,968.90
2023-02-21T09:20:29.197Z,968.90
2023-02-21T09:21:29.188Z,968.93
2023-02-21T09:22:29.172Z,968.93
2023-02-21T09:23:30.120Z,968.98
2023-02-21T09:24:29.134Z,969.00
2023-02-21T09:25:29.274Z,969.01
2023-02-21T09:26:29.116Z,969.00
2023-02-21T09:27:29.116Z,969.05
2023-02-21T09:28:29.085Z,969.05
2023-02-21T09:29:34.217Z,969.07
2023-02-21T09:30:30.190Z,969.04
2023-02-21T09:31:29.065Z,969.05
2023-02-21T09:32:29.199Z,969.05
2023-02-21T09:33:29.043Z,969.03
2023-02-21T09:34:29.052Z,969.12
2023-02-21T09:35:29.096Z,969.13
2023-02-21T09:36:29.008Z,969.14
2023-02-21T09:37:29.038Z,969.12
2023-02-21T09:38:29.329Z,969.16
2023-02-21T09:39:28.994Z,969.18
2023-02-21T09:40:28.979Z,969.20
2023-02-21T09:41:28.980Z,969.17
2023-02-21T09:42:28.929Z,969.20
2023-02-21T09:43:28.933Z,969.23
2023-02-21T09:44:28.981Z,969.21
2023-02-21T09:45:28.960Z,969.28
2023-02-21T09:46:28.926Z,969.30
2023-02-21T09:47:28.902Z,969.30
2023-02-21T09:48:28.893Z,969.34
2023-02-21T09:49:28.906Z,969.39
2023-02-21T09:50:28.851Z,969.40
2023-02-21T09:51:28.859Z,969.40
2023-02-21T09:52:28.920Z,969.44
2023-02-21T09:53:28.835Z,969.43
2023-02-21T09:54:28.837Z,969.43
2023-02-21T09:55:30.558Z,969.46
2023-02-21T09:56:28.797Z,969.44
2023-02-21T09:57:28.796Z,969.47
2023-02-21T09:58:28.755Z,969.50
2023-02-21T09:59:28.765Z,969.60
2023-02-21T10:00:28.734Z,969.52
2023-02-21T10:01:28.808Z,969.55
2023-02-21T10:02:28.721Z,969.59
2023-02-21T10:03:28.716Z,969.59
2023-02-21T10:04:28.779Z,969.66
2023-02-21T10:05:28.683Z,969.68
2023-02-21T10:06:28.675Z,969.63
2023-02-21T10:07:28.667Z,969.71
2023-02-21T10:08:28.660Z,969.76
2023-02-21T10:09:28.666Z,969.77
2023-02-21T10:10:28.638Z,969.79
2023-02-21T10:11:28.621Z,969.77
2023-02-21T10:12:28.633Z,969.71
2023-02-21T10:13:28.629Z,969.73
2023-02-21T10:14:28.610Z,969.77
2023-02-21T10:15:28.608Z,969.79
2023-02-21T10:16:28.621Z,969.81
2023-02-21T10:17:28.549Z,969.83
2023-02-21T10:18:28.609Z,969.78
2023-02-21T10:19:28.517Z,969.81
2023-02-21T10:20:28.572Z,969.81
2023-02-21T10:21:28.515Z,969.81
2023-02-21T10:22:28.490Z,969.82
2023-02-21T10:23:29.080Z,969.82
2023-02-21T10:24:28.480Z,969.85
2023-02-21T10:25:28.461Z,969.90
2023-02-21T10:26:28.523Z,969.88
2023-02-21T10:27:28.445Z,969.87
2023-02-21T10:28:28.450Z,969.89
2023-02-21T10:29:28.417Z,969.92
2023-02-21T10:30:28.558Z,969.95
2023-02-21T10:31:28.545Z,969.99
2023-02-21T10:32:28.422Z,969.95
2023-02-21T10:33:28.389Z,969.91
2023-02-21T10:34:28.415Z,969.97
2023-02-21T10:35:28.356Z,969.92
2023-02-21T10:36:29.166Z,969.93
2023-02-21T10:37:28.354Z,969.97
2023-02-21T10:38:28.453Z,969.98
2023-02-21T10:39:29.082Z,970.03
2023-02-21T10:40:28.305Z,970.03
2023-02-21T10:41:28.311Z,970.08
2023-02-21T10:42:28.278Z,970.07
2023-02-21T10:43:28.297Z,970.08
2023-02-21T10:44:28.561Z,970.13
2023-02-21T10:45:28.224Z,970.10
2023-02-21T10:46:28.412Z,970.16
2023-02-21T10:47:28.247Z,970.17
2023-02-21T10:48:28.560Z,970.21
2023-02-21T10:49:28.226Z,970.20
2023-02-21T10:50:28.185Z,970.20
2023-02-21T10:51:28.165Z,970.22
2023-02-21T10:52:28.158Z,970.23
2023-02-21T10:53:28.296Z,970.27
2023-02-21T10:54:28.559Z,970.25
2023-02-21T10:55:33.122Z,970.25
2023-02-21T10:56:28.163Z,970.27
2023-02-21T10:57:28.117Z,970.32
2023-02-21T10:58:28.093Z,970.31
2023-02-21T10:59:31.119Z,970.26
2023-02-21T11:00:28.086Z,970.31
2023-02-21T11:01:28.180Z,970.30
2023-02-21T11:02:28.091Z,970.34
2023-02-21T11:03:28.055Z,970.32
2023-02-21T11:04:28.049Z,970.37
2023-02-21T11:05:28.350Z,970.31
2023-02-21T11:06:28.204Z,970.30
2023-02-21T11:07:28.013Z,970.32
2023-02-21T11:08:28.010Z,970.26
2023-02-21T11:09:27.977Z,970.34
2023-02-21T11:10:28.797Z,970.34
2023-02-21T11:11:27.951Z,970.32
2023-02-21T11:12:27.948Z,970.32
2023-02-21T11:13:27.997Z,970.37
2023-02-21T11:14:27.932Z,970.39
2023-02-21T11:15:27.933Z,970.40
2023-02-21T11:16:27.892Z,970.39
2023-02-21T11:17:27.927Z,970.42
2023-02-21T11:18:27.919Z,970.44
2023-02-21T11:19:27.862Z,970.49
2023-02-21T11:20:27.860Z,970.48
2023-02-21T11:21:27.847Z,970.48
2023-02-21T11:22:27.877Z,970.55
2023-02-21T11:23:27.877Z,970.52
2023-02-21T11:24:27.810Z,970.57
2023-02-21T11:25:27.968Z,970.53
2023-02-21T11:26:27.774Z,970.54
2023-02-21T11:27:27.813Z,970.58
2023-02-21T11:28:27.774Z,970.52
2023-02-21T11:29:27.762Z,970.54
2023-02-21T11:30:27.793Z,970.55
2023-02-21T11:31:28.750Z,970.60
2023-02-21T11:32:28.620Z,970.56
2023-02-21T11:33:28.503Z,970.59
2023-02-21T11:34:27.686Z,970.59
2023-02-21T11:35:28.016Z,970.64
2023-02-21T11:36:28.726Z,970.70
2023-02-21T11:37:28.033Z,970.70
2023-02-21T11:38:28.572Z,970.74
2023-02-21T11:39:27.665Z,970.75
2023-02-21T11:40:27.628Z,970.80
2023-02-21T11:41:27.632Z,970.75
2023-02-21T11:42:27.599Z,970.76
2023-02-21T11:43:27.606Z,970.78
2023-02-21T11:44:27.596Z,970.75
2023-02-21T11:45:28.132Z,970.77
2023-02-21T11:46:27.628Z,970.76
2023-02-21T11:47:27.545Z,970.76
2023-02-21T11:48:27.629Z,970.74
2023-02-21T11:49:27.530Z,970.79
2023-02-21T11:50:27.561Z,970.75
2023-02-21T11:51:27.593Z,970.78
2023-02-21T11:52:27.515Z,970.75
2023-02-21T11:53:27.473Z,970.82
2023-02-21T11:54:27.517Z,970.77
2023-02-21T11:55:27.471Z,970.81
2023-02-21T11:56:27.473Z,970.79
2023-02-21T11:57:27.454Z,970.77
2023-02-21T11:58:27.431Z,970.85
2023-02-21T11:59:27.482Z,970.89
2023-02-21T12:00:27.416Z,970.89
2023-02-21T12:01:27.403Z,970.92
2023-02-21T12:02:27.445Z,970.93
2023-02-21T12:03:27.366Z,970.90
2023-02-21T12:04:27.378Z,970.93
2023-02-21T12:05:27.486Z,971.03
2023-02-21T12:06:27.352Z,971.02
2023-02-21T12:07:27.334Z,971.05
2023-02-21T12:08:27.370Z,971.01
2023-02-21T12:09:27.321Z,971.10
2023-02-21T12:10:27.384Z,971.11
2023-02-21T12:11:27.298Z,971.11
2023-02-21T12:12:27.426Z,971.15
2023-02-21T12:13:27.272Z,971.13
2023-02-21T12:14:27.249Z,971.13
2023-02-21T12:15:27.272Z,971.20
2023-02-21T12:16:27.232Z,971.15
2023-02-21T12:17:27.214Z,971.13
2023-02-21T12:18:27.229Z,971.13
2023-02-21T12:19:27.241Z,971.20
2023-02-21T12:20:27.230Z,971.21
2023-02-21T12:21:27.206Z,971.22
2023-02-21T12:22:27.174Z,971.22
2023-02-21T12:23:27.141Z,971.28
2023-02-21T12:24:27.126Z,971.24
2023-02-21T12:25:27.137Z,971.31
2023-02-21T12:26:27.190Z,971.30
2023-02-21T12:27:27.101Z,971.29
2023-02-21T12:28:27.105Z,971.30